createdAt,value
2023-03-06T00:02:01.686Z,6.38
2023-03-06T00:04:13.272Z,5.40
2023-03-06T00:06:17.991Z,6.18
2023-03-06T00:08:20.034Z,5.82
2023-03-06T00:10:25.915Z,5.80
2023-03-06T00:12:27.846Z,5.82
2023-03-06T00:14:36.892Z,6.63
2023-03-06T00:16:39.059Z,6.03
2023-03-06T00:18:44.238Z,6.45
2023-03-06T00:20:48.228Z,6.57
2023-03-06T00:22:51.646Z,6.00
2023-03-06T00:24:54.255Z,6.60
2023-03-06T00:26:56.163Z,5.97
2023-03-06T00:28:58.144Z,6.15
2023-03-06T00:31:00.148Z,6.28
2023-03-06T00:33:02.177Z,6.78
2023-03-06T00:35:04.507Z,6.30
2023-03-06T00:37:08.421Z,5.57
2023-03-06T00:39:11.439Z,5.60
2023-03-06T00:41:13.956Z,5.55
2023-03-06T00:43:19.014Z,6.00
2023-03-06T00:45:20.964Z,5.95
2023-03-06T00:47:22.988Z,5.72
2023-03-06T00:49:27.042Z,6.10
2023-03-06T00:51:31.204Z,6.32
2023-03-06T00:53:35.116Z,5.72
2023-03-06T00:55:37.987Z,6.30
2023-03-06T00:57:41.158Z,5.97
2023-03-06T00:59:43.329Z,6.32
2023-03-06T01:01:46.496Z,6.20
2023-03-06T01:03:48.392Z,6.13
2023-03-06T01:05:50.334Z,6.20
2023-03-06T01:07:56.209Z,5.78
2023-03-06T01:09:58.097Z,5.70
2023-03-06T01:11:59.982Z,5.80
2023-03-06T01:14:02.060Z,5.63
2023-03-06T01:16:12.648Z,5.93
2023-03-06T01:18:17.754Z,5.32
2023-03-06T01:20:19.777Z,5.78
2023-03-06T01:22:21.720Z,5.30
2023-03-06T01:24:26.850Z,5.35
2023-03-06T01:26:31.889Z,5.85
2023-03-06T01:28:37.600Z,5.55
2023-03-06T01:30:40.516Z,5.85
2023-03-06T01:32:42.404Z,5.80
2023-03-06T01:34:44.326Z,5.32
2023-03-06T01:36:47.956Z,5.32
2023-03-06T01:38:50.939Z,6.22
2023-03-06T01:40:52.863Z,5.57
2023-03-06T01:42:54.725Z,5.32
2023-03-06T01:45:28.794Z,5.35
2023-03-06T01:47:31.015Z,5.93
2023-03-06T01:49:39.520Z,5.50
2023-03-06T01:51:50.088Z,5.45
2023-03-06T01:53:54.325Z,5.43
2023-03-06T01:55:56.235Z,5.55
2023-03-06T01:58:05.426Z,5.25
2023-03-06T02:00:13.462Z,5.32
2023-03-06T02:02:15.872Z,5.68
2023-03-06T02:04:18.482Z,5.22
2023-03-06T02:06:22.057Z,5.43
2023-03-06T02:08:24.845Z,5.25
2023-03-06T02:10:27.167Z,5.50
2023-03-06T02:12:29.162Z,5.40
2023-03-06T02:14:34.033Z,5.35
2023-03-06T02:16:36.071Z,5.32
2023-03-06T02:18:42.714Z,5.35
2023-03-06T02:20:50.481Z,5.00
2023-03-06T02:23:10.577Z,5.65
2023-03-06T02:25:51.121Z,5.22
2023-03-06T02:27:53.253Z,6.05
2023-03-06T02:29:56.254Z,5.72
2023-03-06T02:31:59.426Z,6.07
2023-03-06T02:34:14.473Z,5.22
2023-03-06T02:36:22.464Z,5.22
2023-03-06T02:38:48.073Z,5.25
2023-03-06T02:40:52.616Z,5.30
2023-03-06T02:43:00.545Z,4.93
2023-03-06T02:45:08.046Z,5.25
2023-03-06T02:47:10.213Z,5.15
2023-03-06T02:49:13.137Z,5.60
2023-03-06T02:51:15.076Z,5.07
2023-03-06T02:53:19.373Z,5.13
2023-03-06T02:55:24.694Z,5.55
2023-03-06T02:57:27.672Z,5.28
2023-03-06T02:59:32.565Z,5.22
2023-03-06T03:01:34.491Z,5.45
2023-03-06T03:03:37.569Z,5.10
2023-03-06T03:05:40.482Z,5.00
2023-03-06T03:07:43.473Z,5.40
2023-03-06T03:09:51.335Z,4.78
2023-03-06T03:12:01.166Z,4.82
2023-03-06T03:14:03.094Z,5.03
2023-03-06T03:16:09.961Z,5.65
2023-03-06T03:18:12.425Z,5.53
2023-03-06T03:20:19.274Z,5.28
2023-03-06T03:22:21.185Z,5.15
2023-03-06T03:24:24.764Z,5.28
2023-03-06T03:26:26.685Z,5.28
2023-03-06T03:28:30.647Z,4.97
2023-03-06T03:30:33.696Z,4.88
2023-03-06T03:32:35.778Z,5.90
2023-03-06T03:34:38.746Z,5.00
2023-03-06T03:36:40.761Z,5.35
2023-03-06T03:38:46.639Z,4.95
2023-03-06T03:40:50.558Z,5.63
2023-03-06T03:42:54.454Z,4.63
2023-03-06T03:44:57.302Z,5.57
2023-03-06T03:46:59.193Z,5.18
2023-03-06T03:49:02.185Z,5.20
2023-03-06T03:51:13.398Z,5.28
2023-03-06T03:53:17.347Z,5.07
2023-03-06T03:55:21.316Z,5.45
2023-03-06T03:57:24.292Z,5.10
2023-03-06T03:59:29.379Z,5.50
2023-03-06T04:01:39.539Z,5.03
2023-03-06T04:03:42.823Z,5.65
2023-03-06T04:05:45.730Z,5.38
2023-03-06T04:07:47.772Z,5.45
2023-03-06T04:09:49.666Z,5.32
2023-03-06T04:11:51.645Z,4.97
2023-03-06T04:13:55.523Z,5.47
2023-03-06T04:15:57.586Z,5.70
2023-03-06T04:18:01.612Z,5.20
2023-03-06T04:20:05.257Z,5.53
2023-03-06T04:22:07.195Z,5.93
2023-03-06T04:24:11.239Z,5.53
2023-03-06T04:26:13.213Z,4.80
2023-03-06T04:28:15.596Z,5.80
2023-03-06T04:30:17.553Z,6.07
2023-03-06T04:32:21.392Z,5.28
2023-03-06T04:34:23.674Z,5.40
2023-03-06T04:36:29.717Z,6.07
2023-03-06T04:38:31.744Z,5.57
2023-03-06T04:40:36.198Z,5.55
2023-03-06T04:42:38.406Z,5.35
2023-03-06T04:44:41.409Z,5.65
2023-03-06T04:46:43.363Z,5.30
2023-03-06T04:48:45.497Z,5.55
2023-03-06T04:50:47.564Z,5.88
2023-03-06T04:52:49.651Z,5.63
2023-03-06T04:54:51.674Z,5.60
2023-03-06T04:56:57.732Z,5.97
2023-03-06T04:58:59.699Z,5.78
2023-03-06T05:01:16.565Z,5.75
2023-03-06T05:03:18.479Z,5.32
2023-03-06T05:05:20.425Z,5.63
2023-03-06T05:07:22.465Z,5.65
2023-03-06T05:09:31.084Z,5.70
2023-03-06T05:11:33.050Z,5.80
2023-03-06T05:13:34.976Z,5.35
2023-03-06T05:15:42.293Z,5.60
2023-03-06T05:17:44.549Z,5.60
2023-03-06T05:19:46.446Z,6.15
2023-03-06T05:21:48.665Z,7.03
2023-03-06T05:23:50.704Z,7.18
2023-03-06T05:25:53.723Z,9.32
2023-03-06T05:27:55.730Z,8.73
2023-03-06T05:29:58.751Z,9.27
2023-03-06T05:32:05.199Z,8.80
2023-03-06T05:34:08.206Z,8.57
2023-03-06T05:36:10.563Z,10.20
2023-03-06T05:38:12.561Z,7.68
2023-03-06T05:40:17.443Z,7.90
2023-03-06T05:42:20.778Z,7.40
2023-03-06T05:44:24.173Z,7.13
2023-03-06T05:46:26.347Z,8.23
2023-03-06T05:48:35.381Z,8.65
2023-03-06T05:50:45.214Z,7.53
2023-03-06T05:52:47.123Z,10.82
2023-03-06T05:54:57.173Z,13.02
2023-03-06T05:57:05.912Z,11.77
2023-03-06T05:59:07.882Z,9.98
2023-03-06T06:01:18.525Z,8.23
2023-03-06T06:03:22.745Z,7.07
2023-03-06T06:05:48.198Z,6.47
2023-03-06T06:07:56.073Z,6.10
2023-03-06T06:09:58.097Z,5.18
2023-03-06T06:12:03.958Z,5.85
2023-03-06T06:14:07.016Z,6.25
2023-03-06T06:16:19.657Z,5.95
2023-03-06T06:18:22.716Z,5.93
2023-03-06T06:20:25.783Z,5.97
2023-03-06T06:22:27.766Z,6.68
2023-03-06T06:24:33.691Z,5.88
2023-03-06T06:26:37.679Z,6.03
2023-03-06T06:28:39.805Z,5.97
2023-03-06T06:30:47.516Z,5.90
2023-03-06T06:32:49.537Z,5.93
2023-03-06T06:34:52.542Z,5.72
2023-03-06T06:36:55.757Z,6.28
2023-03-06T06:39:00.662Z,6.32
2023-03-06T06:41:33.481Z,6.43
2023-03-06T06:43:26.444Z,6.80
2023-03-06T06:45:28.684Z,6.55
2023-03-06T06:47:30.687Z,6.80
2023-03-06T06:49:33.179Z,6.07
2023-03-06T06:51:39.796Z,6.10
2023-03-06T06:53:42.857Z,6.72
2023-03-06T06:55:44.853Z,6.55
2023-03-06T06:57:46.998Z,7.03
2023-03-06T06:59:50.650Z,7.18
2023-03-06T07:01:54.720Z,6.78
2023-03-06T07:03:56.991Z,7.00
2023-03-06T07:05:58.974Z,5.82
2023-03-06T07:08:01.080Z,6.07
2023-03-06T07:10:11.027Z,5.78
2023-03-06T07:12:18.903Z,999.90
2023-03-06T07:13:24.373Z,944.15
2023-03-06T07:13:38.678Z,999.90
2023-03-06T07:13:52.714Z,891.45
2023-03-06T07:14:06.690Z,399.15
2023-03-06T07:14:20.588Z,46.08
2023-03-06T07:14:34.675Z,5.05
2023-03-06T07:14:48.713Z,5.65
2023-03-06T07:15:03.173Z,5.60
2023-03-06T07:17:40.625Z,5.68
2023-03-06T07:19:42.813Z,5.45
2023-03-06T07:21:45.810Z,4.93
2023-03-06T07:23:47.945Z,4.53
2023-03-06T07:25:50.289Z,4.97
2023-03-06T07:27:55.863Z,5.35
2023-03-06T07:29:57.993Z,5.00
2023-03-06T07:32:00.237Z,4.93
2023-03-06T07:34:04.808Z,4.80
2023-03-06T07:36:12.726Z,4.55
2023-03-06T07:38:14.903Z,4.40
2023-03-06T07:40:17.476Z,4.50
2023-03-06T07:42:19.572Z,4.50
2023-03-06T07:44:21.689Z,4.78
2023-03-06T07:46:25.788Z,4.38
2023-03-06T07:48:31.806Z,999.90
2023-03-06T07:50:35.280Z,999.90
2023-03-06T07:52:37.239Z,985.20
2023-03-06T07:54:39.179Z,685.58
2023-03-06T07:55:12.670Z,124.78
2023-03-06T07:55:24.616Z,29.92
2023-03-06T07:55:39.526Z,13.68
2023-03-06T07:55:51.384Z,2.05
2023-03-06T07:56:09.403Z,2.08
2023-03-06T07:56:21.379Z,2.30
2023-03-06T07:56:35.234Z,2.63
2023-03-06T07:56:50.952Z,2.97
2023-03-06T07:57:02.810Z,3.40
2023-03-06T07:57:15.153Z,3.42
2023-03-06T07:57:27.345Z,3.40
2023-03-06T07:57:39.722Z,3.40
2023-03-06T07:57:51.839Z,3.45
2023-03-06T07:58:03.745Z,3.55
2023-03-06T07:58:15.605Z,3.38
2023-03-06T07:58:27.750Z,3.10
2023-03-06T07:58:42.958Z,2.90
2023-03-06T07:58:56.109Z,3.05
2023-03-06T07:59:11.061Z,3.15
2023-03-06T07:59:22.992Z,3.13
2023-03-06T07:59:34.931Z,2.95
2023-03-06T07:59:46.896Z,3.00
2023-03-06T07:59:58.833Z,3.08
2023-03-06T08:00:15.071Z,3.30
2023-03-06T08:00:27.019Z,3.50
2023-03-06T08:00:38.925Z,3.47
2023-03-06T08:00:50.810Z,3.30
2023-03-06T08:01:07.181Z,3.25
2023-03-06T08:01:28.526Z,3.17
2023-03-06T08:01:40.486Z,3.22
2023-03-06T08:01:55.257Z,3.20
2023-03-06T08:02:07.633Z,3.17
2023-03-06T08:02:19.498Z,3.08
2023-03-06T08:02:31.541Z,3.10
2023-03-06T08:02:44.174Z,3.15
2023-03-06T08:02:56.356Z,3.22
2023-03-06T08:03:11.428Z,3.17
2023-03-06T08:03:26.388Z,3.35
2023-03-06T08:03:38.562Z,3.40
2023-03-06T08:03:51.076Z,3.40
2023-03-06T08:04:03.095Z,3.10
2023-03-06T08:04:15.051Z,2.90
2023-03-06T08:04:28.987Z,3.05
2023-03-06T08:04:40.980Z,3.20
2023-03-06T08:04:54.554Z,3.30
2023-03-06T08:05:08.258Z,3.40
2023-03-06T08:05:20.274Z,3.10
2023-03-06T08:05:32.159Z,2.78
2023-03-06T08:05:45.076Z,2.80
2023-03-06T08:06:06.120Z,2.97
2023-03-06T08:06:23.605Z,3.20
2023-03-06T08:06:35.597Z,3.10
2023-03-06T08:06:47.484Z,3.05
2023-03-06T08:07:00.197Z,3.03
2023-03-06T08:07:13.369Z,3.08
2023-03-06T08:07:25.228Z,28.73
2023-03-06T08:07:37.117Z,307.88
2023-03-06T08:07:48.967Z,306.70
2023-03-06T08:08:00.869Z,31.25
2023-03-06T08:08:12.816Z,0.82
2023-03-06T08:08:24.706Z,1.05
2023-03-06T08:08:39.534Z,1.10
2023-03-06T08:08:53.269Z,1.02
2023-03-06T08:09:05.109Z,1.00
2023-03-06T08:09:17.004Z,1.00
2023-03-06T08:09:28.859Z,1.00
2023-03-06T08:09:40.673Z,0.90
2023-03-06T08:09:52.599Z,0.90
2023-03-06T08:10:05.304Z,0.90
2023-03-06T08:10:17.590Z,0.90
2023-03-06T08:12:27.975Z,10.98
2023-03-06T08:14:29.891Z,4.47
2023-03-06T08:16:32.141Z,0.50
2023-03-06T08:18:35.705Z,0.77
2023-03-06T08:20:37.665Z,0.60
2023-03-06T08:22:39.699Z,0.80
2023-03-06T08:24:41.757Z,0.77
2023-03-06T08:26:43.862Z,0.70
2023-03-06T08:28:46.720Z,0.63
2023-03-06T08:30:48.593Z,0.90
2023-03-06T08:32:50.666Z,0.50
2023-03-06T08:33:23.183Z,0.47
2023-03-06T08:33:30.028Z,0.62
2023-03-06T08:33:37.058Z,0.70
2023-03-06T08:33:43.989Z,0.70
2023-03-06T08:33:51.067Z,0.80
2023-03-06T08:34:00.060Z,0.80
2023-03-06T08:34:10.351Z,0.80
2023-03-06T08:34:20.235Z,0.81
2023-03-06T08:34:27.283Z,0.84
2023-03-06T08:34:34.252Z,0.80
2023-03-06T08:34:42.796Z,0.80
2023-03-06T08:34:49.662Z,0.77
2023-03-06T08:34:56.541Z,0.80
2023-03-06T08:35:04.726Z,0.90
2023-03-06T08:35:11.718Z,1.00
2023-03-06T08:35:18.864Z,1.00
2023-03-06T08:37:26.462Z,0.95
2023-03-06T08:39:28.378Z,0.90
2023-03-06T08:41:30.929Z,1.00
2023-03-06T08:43:32.931Z,0.80
2023-03-06T08:45:36.226Z,0.70
2023-03-06T08:47:38.213Z,0.77
2023-03-06T08:49:40.557Z,0.77
2023-03-06T08:51:43.251Z,0.95
2023-03-06T08:53:45.531Z,8.60
2023-03-06T10:25:23.866Z,1.69
2023-03-06T10:25:46.138Z,1.50
2023-03-06T10:26:03.652Z,1.30
2023-03-06T10:26:22.913Z,1.40
2023-03-06T10:26:52.706Z,1.60
2023-03-06T10:27:31.820Z,1.48
2023-03-06T10:27:49.501Z,280.85
2023-03-06T10:28:28.069Z,12.05
2023-03-06T10:28:47.176Z,3.20
2023-03-06T10:29:11.035Z,4.35
2023-03-06T10:30:02.267Z,1.39
2023-03-06T10:30:20.369Z,1.13
2023-03-06T10:30:47.180Z,0.95
2023-03-06T10:31:17.086Z,1.40
2023-03-06T10:31:34.744Z,1.50
2023-03-06T10:31:58.556Z,1.52
2023-03-06T10:32:39.495Z,1.40
2023-03-06T10:33:15.934Z,1.83
2023-03-06T10:34:06.720Z,1.77
2023-03-06T10:34:28.858Z,1.60
2023-03-06T10:34:43.697Z,1.60
2023-03-06T10:35:00.679Z,1.88
2023-03-06T10:35:45.080Z,2.20
2023-03-06T10:35:59.259Z,1.90
2023-03-06T10:36:16.379Z,1.90
2023-03-06T10:36:30.392Z,2.00
2023-03-06T10:36:44.297Z,2.10
2023-03-06T10:37:05.471Z,2.15
2023-03-06T10:37:21.768Z,2.00
2023-03-06T10:37:35.740Z,2.03
2023-03-06T10:37:49.820Z,1.92
2023-03-06T10:38:25.691Z,1.63
2023-03-06T10:38:40.691Z,1.70
2023-03-06T10:38:56.861Z,1.70
2023-03-06T10:39:17.989Z,1.65
2023-03-06T10:39:32.114Z,1.70
2023-03-06T10:39:46.971Z,1.70
2023-03-06T10:40:18.568Z,1.80
2023-03-06T10:40:43.591Z,1.80
2023-03-06T10:41:17.194Z,1.75
2023-03-06T10:41:35.978Z,1.90
2023-03-06T10:41:50.376Z,1.80
2023-03-06T10:42:04.264Z,1.90
2023-03-06T10:42:18.216Z,1.92
2023-03-06T10:42:32.210Z,2.00
2023-03-06T10:42:46.121Z,2.05
2023-03-06T10:43:11.202Z,1.90
2023-03-06T10:43:26.049Z,1.80
2023-03-06T10:43:45.186Z,1.70
2023-03-06T10:44:05.262Z,1.65
2023-03-06T10:44:21.257Z,1.70
2023-03-06T10:44:35.127Z,1.80
2023-03-06T10:44:48.981Z,1.80
2023-03-06T10:45:16.739Z,1.88
2023-03-06T10:45:40.530Z,1.70
2023-03-06T10:46:01.753Z,1.80
2023-03-06T10:46:28.188Z,1.83
2023-03-06T10:46:47.697Z,1.90
2023-03-06T10:47:27.716Z,1.58
2023-03-06T10:47:42.450Z,1.73
2023-03-06T10:48:15.414Z,1.88
2023-03-06T10:48:30.912Z,2.10
2023-03-06T10:48:58.539Z,2.10
2023-03-06T10:49:36.060Z,2.10
2023-03-06T10:50:08.416Z,1.88
2023-03-06T10:50:30.788Z,1.90
2023-03-06T10:50:44.661Z,1.90
2023-03-06T10:51:20.184Z,2.03
2023-03-06T10:51:37.031Z,1.75
2023-03-06T10:52:15.436Z,2.30
2023-03-06T10:52:32.409Z,2.28
2023-03-06T10:53:00.512Z,2.25
2023-03-06T10:53:24.092Z,2.10
2023-03-06T10:53:53.450Z,2.10
2023-03-06T10:54:13.154Z,2.30
2023-03-06T10:54:28.389Z,2.50
2023-03-06T10:54:44.466Z,2.60
2023-03-06T10:55:25.009Z,2.40
2023-03-06T10:55:39.480Z,2.30
2023-03-06T10:57:48.010Z,1.85
2023-03-06T11:00:05.700Z,2.03
2023-03-06T11:02:41.336Z,1.90
2023-03-06T11:04:51.394Z,1.17
2023-03-06T11:07:18.991Z,1.58
2023-03-06T11:09:26.206Z,1.70
2023-03-06T11:11:37.235Z,1.92
2023-03-06T11:13:43.329Z,1.83
2023-03-06T11:16:08.169Z,1.92
2023-03-06T11:18:11.153Z,2.30
2023-03-06T11:20:51.862Z,2.38
2023-03-06T11:23:16.502Z,2.00
2023-03-06T11:25:22.297Z,1.65
2023-03-06T11:27:35.047Z,1.38
2023-03-06T11:29:43.370Z,1.52
2023-03-06T11:32:00.219Z,1.60
2023-03-06T11:34:38.119Z,2.05
2023-03-06T11:37:06.541Z,2.47
2023-03-06T11:39:41.721Z,2.70
2023-03-06T11:42:28.328Z,2.38
2023-03-06T11:44:53.035Z,3.10
2023-03-06T11:47:18.637Z,3.03
2023-03-06T11:49:43.549Z,2.70
2023-03-06T11:51:53.334Z,3.65
2023-03-06T11:54:00.474Z,2.97
2023-03-06T11:56:26.237Z,2.47
2023-03-06T11:58:58.902Z,3.67
2023-03-06T12:01:10.842Z,2.90
2023-03-06T12:03:46.268Z,3.13
2023-03-06T12:06:10.508Z,3.53
2023-03-06T12:08:25.629Z,2.95
2023-03-06T12:10:51.747Z,2.38
2023-03-06T12:13:18.050Z,2.75
2023-03-06T12:15:46.892Z,2.78
2023-03-06T12:18:30.964Z,2.90
2023-03-06T12:21:11.335Z,3.03
2023-03-06T12:23:50.456Z,2.60
2023-03-06T12:26:27.354Z,3.17
2023-03-06T12:28:42.161Z,2.70
2023-03-06T12:31:06.900Z,3.13
2023-03-06T12:33:38.341Z,3.20
2023-03-06T12:36:16.607Z,2.95
2023-03-06T12:38:52.369Z,2.80
2023-03-06T12:41:07.448Z,2.58
2023-03-06T12:43:27.560Z,2.88
2023-03-06T12:45:37.286Z,3.40
2023-03-06T12:47:44.903Z,3.30
2023-03-06T12:49:53.497Z,3.33
2023-03-06T12:51:57.210Z,3.35
2023-03-06T12:54:02.396Z,3.40
2023-03-06T12:56:05.164Z,3.00
2023-03-06T12:58:30.838Z,2.97
2023-03-06T13:01:03.610Z,2.97
2023-03-06T13:03:46.593Z,3.53
2023-03-06T13:06:16.252Z,3.40
2023-03-06T13:08:59.010Z,3.00
2023-03-06T13:11:39.722Z,3.20
2023-03-06T13:13:49.148Z,3.38
2023-03-06T13:16:09.845Z,2.63
2023-03-06T13:18:34.667Z,2.97
2023-03-06T13:20:44.407Z,2.90
2023-03-06T13:22:47.550Z,3.22
2023-03-06T13:25:22.187Z,3.10
2023-03-06T13:27:46.301Z,2.90
2023-03-06T13:30:05.314Z,3.10
2023-03-06T13:32:28.124Z,2.95
2023-03-06T13:34:49.459Z,3.28
2023-03-06T13:36:53.669Z,3.30
2023-03-06T13:38:57.880Z,3.60
2023-03-06T13:41:25.907Z,3.78
2023-03-06T13:43:40.663Z,4.75
2023-03-06T13:46:35.172Z,4.20
2023-03-06T13:48:45.163Z,4.45
2023-03-06T13:50:57.903Z,3.88
2023-03-06T13:53:27.418Z,3.40
2023-03-06T13:55:48.675Z,3.85
2023-03-06T13:58:22.765Z,4.13
2023-03-06T14:01:04.436Z,4.15
2023-03-06T14:03:43.373Z,4.75
2023-03-06T14:05:52.297Z,5.10
2023-03-06T14:08:20.008Z,5.30
2023-03-06T14:10:26.966Z,6.60
2023-03-06T14:12:42.616Z,8.32
2023-03-06T14:15:06.028Z,7.22
2023-03-06T14:17:18.989Z,4.97
2023-03-06T14:19:21.231Z,4.68
2023-03-06T14:21:56.058Z,4.38
2023-03-06T14:24:06.067Z,5.30
2023-03-06T14:26:27.065Z,5.65
2023-03-06T14:29:04.564Z,5.00
2023-03-06T14:31:07.505Z,5.53
2023-03-06T14:33:11.697Z,5.38
2023-03-06T14:35:32.411Z,6.25
2023-03-06T14:37:37.727Z,5.53
2023-03-06T14:39:46.941Z,5.57
2023-03-06T14:41:49.488Z,4.80
2023-03-06T14:43:52.844Z,7.10
2023-03-06T14:46:03.397Z,4.88
2023-03-06T14:48:15.668Z,3.55
2023-03-06T14:50:34.406Z,3.80
2023-03-06T14:52:43.574Z,3.60
2023-03-06T14:54:59.019Z,3.60
2023-03-06T14:57:06.363Z,3.42
2023-03-06T14:59:16.822Z,3.90
2023-03-06T15:01:40.771Z,3.88
2023-03-06T15:03:55.178Z,3.17
2023-03-06T15:06:01.423Z,3.55
2023-03-06T15:08:17.957Z,3.13
2023-03-06T15:10:26.273Z,3.13
2023-03-06T15:12:38.918Z,3.38
2023-03-06T15:14:48.082Z,3.40
2023-03-06T15:16:50.125Z,3.42
2023-03-06T15:19:04.548Z,3.17
2023-03-06T15:21:20.856Z,3.42
2023-03-06T15:23:45.779Z,3.28
2023-03-06T15:26:03.952Z,3.35
2023-03-06T15:28:30.890Z,3.25
2023-03-06T15:30:42.248Z,3.40
2023-03-06T15:32:52.225Z,3.08
2023-03-06T15:35:30.187Z,3.65
2023-03-06T15:37:34.665Z,3.25
2023-03-06T15:39:46.910Z,3.20
2023-03-06T15:42:18.313Z,3.50
2023-03-06T15:44:27.072Z,3.20
2023-03-06T15:46:41.854Z,3.67
2023-03-06T15:49:03.246Z,3.10
2023-03-06T15:51:07.057Z,2.97
2023-03-06T15:53:09.243Z,3.45
2023-03-06T15:55:24.241Z,3.00
2023-03-06T15:57:53.247Z,3.25
2023-03-06T16:00:00.391Z,3.70
2023-03-06T16:02:15.764Z,3.33
2023-03-06T16:04:20.184Z,3.80
2023-03-06T16:06:32.092Z,3.67
2023-03-06T16:08:34.360Z,3.47
2023-03-06T16:10:40.901Z,3.65
2023-03-06T16:12:51.900Z,3.47
2023-03-06T16:14:57.377Z,3.20
2023-03-06T16:17:04.687Z,3.40
2023-03-06T16:19:25.244Z,3.25
2023-03-06T16:21:29.183Z,3.35
2023-03-06T16:23:39.662Z,3.30
2023-03-06T16:25:49.371Z,3.47
2023-03-06T16:28:16.152Z,3.92
2023-03-06T16:30:20.183Z,3.80
2023-03-06T16:32:28.796Z,3.80
2023-03-06T16:34:34.667Z,3.85
2023-03-06T16:36:41.685Z,3.92
2023-03-06T16:38:45.037Z,3.58
2023-03-06T16:40:50.116Z,3.42
2023-03-06T16:42:57.894Z,3.45
2023-03-06T16:45:03.530Z,2.90
2023-03-06T16:47:07.113Z,3.25
2023-03-06T16:49:21.081Z,3.30
2023-03-06T16:51:24.149Z,3.60
2023-03-06T16:53:26.402Z,3.58
2023-03-06T16:55:29.492Z,3.95
2023-03-06T16:57:35.967Z,3.67
2023-03-06T16:59:39.522Z,3.50
2023-03-06T17:01:51.798Z,3.60
2023-03-06T17:03:57.401Z,4.03
2023-03-06T17:05:59.806Z,3.58
2023-03-06T17:08:05.087Z,3.75
2023-03-06T17:10:10.900Z,3.58
2023-03-06T17:12:13.074Z,3.28
2023-03-06T17:14:33.730Z,3.10
2023-03-06T17:16:40.549Z,3.30
2023-03-06T17:18:45.459Z,3.50
2023-03-06T17:20:52.595Z,3.63
2023-03-06T17:22:55.946Z,3.58
2023-03-06T17:24:58.282Z,2.88
2023-03-06T17:27:01.629Z,3.13
2023-03-06T17:29:07.024Z,3.28
2023-03-06T17:31:18.007Z,3.30
2023-03-06T17:33:20.743Z,3.38
2023-03-06T17:35:27.346Z,2.95
2023-03-06T17:37:33.185Z,3.42
2023-03-06T17:39:39.231Z,3.33
2023-03-06T17:41:42.160Z,3.38
2023-03-06T17:43:48.421Z,2.97
2023-03-06T17:45:50.785Z,3.15
2023-03-06T17:47:56.298Z,3.22
2023-03-06T17:50:00.810Z,3.85
2023-03-06T17:52:09.306Z,3.55
2023-03-06T17:54:19.109Z,3.70
2023-03-06T17:56:22.188Z,2.90
2023-03-06T17:58:28.156Z,3.53
2023-03-06T18:00:31.147Z,3.15
2023-03-06T18:02:40.867Z,3.50
2023-03-06T18:04:51.727Z,3.33
2023-03-06T18:07:00.996Z,3.20
2023-03-06T18:09:07.239Z,2.92
2023-03-06T18:11:32.071Z,3.05
2023-03-06T18:13:44.323Z,2.80
2023-03-06T18:15:48.669Z,3.17
2023-03-06T18:18:09.355Z,2.83
2023-03-06T18:20:20.495Z,2.90
2023-03-06T18:22:35.302Z,2.92
2023-03-06T18:24:50.392Z,2.90
2023-03-06T18:26:53.559Z,2.88
2023-03-06T18:29:06.561Z,3.28
2023-03-06T18:31:40.974Z,3.05
2023-03-06T18:33:45.292Z,2.90
2023-03-06T18:35:48.297Z,2.72
2023-03-06T18:37:52.864Z,3.08
2023-03-06T18:39:55.836Z,3.10
2023-03-06T18:41:58.866Z,3.03
2023-03-06T18:44:02.669Z,2.95
2023-03-06T18:46:06.482Z,3.17
2023-03-06T18:48:09.756Z,3.35
2023-03-06T18:50:18.141Z,3.25
2023-03-06T18:52:24.336Z,3.03
2023-03-06T18:54:30.415Z,2.88
2023-03-06T18:56:34.664Z,2.67
2023-03-06T18:58:37.648Z,2.80
2023-03-06T19:00:47.268Z,2.80
2023-03-06T19:02:50.591Z,2.45
2023-03-06T19:04:56.893Z,2.65
2023-03-06T19:06:59.972Z,3.13
2023-03-06T19:09:04.855Z,3.60
2023-03-06T19:11:14.481Z,4.07
2023-03-06T19:13:22.998Z,3.42
2023-03-06T19:15:26.115Z,3.95
2023-03-06T19:17:29.290Z,3.22
2023-03-06T19:19:36.140Z,3.50
2023-03-06T19:21:39.358Z,3.38
2023-03-06T19:23:44.051Z,2.63
2023-03-06T19:25:58.781Z,2.42
2023-03-06T19:28:04.699Z,3.05
2023-03-06T19:30:08.450Z,3.08
2023-03-06T19:32:13.864Z,3.25
2023-03-06T19:34:18.260Z,2.70
2023-03-06T19:36:24.470Z,2.60
2023-03-06T19:38:28.771Z,2.38
2023-03-06T19:40:31.710Z,2.50
2023-03-06T19:42:36.214Z,1.90
2023-03-06T19:44:40.357Z,1.95
2023-03-06T19:46:44.189Z,2.10
2023-03-06T19:48:49.199Z,2.00
2023-03-06T19:50:51.801Z,1.50
2023-03-06T19:52:54.175Z,1.90
2023-03-06T19:54:58.236Z,1.60
2023-03-06T19:57:01.387Z,1.88
2023-03-06T19:59:10.748Z,1.70
2023-03-06T20:01:21.276Z,1.73
2023-03-06T20:03:24.277Z,2.10
2023-03-06T20:05:28.606Z,1.80
2023-03-06T20:07:36.108Z,1.75
2023-03-06T20:09:42.920Z,1.60
2023-03-06T20:11:47.064Z,1.40
2023-03-06T20:14:00.717Z,1.63
2023-03-06T20:16:04.822Z,1.63
2023-03-06T20:18:07.406Z,1.60
2023-03-06T20:20:11.419Z,2.30
2023-03-06T20:22:14.853Z,2.42
2023-03-06T20:24:19.524Z,2.40
2023-03-06T20:26:22.902Z,2.60
2023-03-06T20:28:26.939Z,2.30
2023-03-06T20:30:37.558Z,2.47
2023-03-06T20:32:40.648Z,2.50
2023-03-06T20:34:44.816Z,2.25
2023-03-06T20:36:47.891Z,2.10
2023-03-06T20:38:56.065Z,2.20
2023-03-06T20:43:16.360Z,2.00
2023-03-06T20:45:18.765Z,2.15
2023-03-06T20:47:25.081Z,1.88
2023-03-06T20:49:29.137Z,1.90
2023-03-06T20:51:36.802Z,1.88
2023-03-06T20:53:39.520Z,2.17
2023-03-06T20:55:43.573Z,2.22
2023-03-06T20:57:54.540Z,2.20
2023-03-06T20:59:56.845Z,2.33
2023-03-06T21:01:59.554Z,2.05
2023-03-06T21:04:06.653Z,2.20
2023-03-06T21:06:09.593Z,1.83
2023-03-06T21:08:13.182Z,1.95
2023-03-06T21:10:15.732Z,2.10
2023-03-06T21:12:18.535Z,2.10
2023-03-06T21:14:21.658Z,2.20
2023-03-06T21:16:25.900Z,2.45
2023-03-06T21:18:28.395Z,2.35
2023-03-06T21:20:30.923Z,1.85
2023-03-06T21:22:33.380Z,2.40
2023-03-06T21:24:36.223Z,2.20
2023-03-06T21:26:38.971Z,2.28
2023-03-06T21:28:43.527Z,2.50
2023-03-06T21:30:46.659Z,2.30
2023-03-06T21:32:50.667Z,2.20
2023-03-06T21:34:53.487Z,2.40
2023-03-06T21:36:55.544Z,2.22
2023-03-06T21:38:58.723Z,2.25
2023-03-06T21:41:14.561Z,2.20
2023-03-06T21:43:17.712Z,2.40
2023-03-06T21:45:22.210Z,2.38
2023-03-06T21:47:24.319Z,2.58
2023-03-06T21:49:27.529Z,2.20
2023-03-06T21:51:29.442Z,2.70
2023-03-06T21:53:31.480Z,2.10
2023-03-06T21:55:33.447Z,2.60
2023-03-06T21:57:35.577Z,2.60
2023-03-06T21:59:37.944Z,2.63
2023-03-06T22:01:40.057Z,2.55
2023-03-06T22:03:41.994Z,3.40
2023-03-06T22:05:45.018Z,2.95
2023-03-06T22:07:47.075Z,3.28
2023-03-06T22:09:53.586Z,3.42
2023-03-06T22:11:55.574Z,3.35
2023-03-06T22:13:58.302Z,3.25
2023-03-06T22:16:00.727Z,3.17
2023-03-06T22:18:02.693Z,3.63
2023-03-06T22:20:04.989Z,3.58
2023-03-06T22:22:07.598Z,3.50
2023-03-06T22:24:10.721Z,3.75
2023-03-06T22:26:14.633Z,3.78
2023-03-06T22:28:18.669Z,3.50
2023-03-06T22:30:22.704Z,4.72
2023-03-06T22:32:25.836Z,4.47
2023-03-06T22:34:36.954Z,3.92
2023-03-06T22:36:39.006Z,3.47
2023-03-06T22:38:44.692Z,3.78
2023-03-06T22:41:00.157Z,3.67
2023-03-06T22:43:04.870Z,3.63
2023-03-06T22:45:16.343Z,3.72
2023-03-06T22:47:18.301Z,3.88
2023-03-06T22:49:21.292Z,3.70
2023-03-06T22:51:23.288Z,3.60
2023-03-06T22:53:26.211Z,4.03
2023-03-06T22:55:29.202Z,4.20
2023-03-06T22:57:32.227Z,4.57
2023-03-06T22:59:34.179Z,3.97
2023-03-06T23:01:39.386Z,4.18
2023-03-06T23:03:44.985Z,4.72
2023-03-06T23:05:49.064Z,4.45
2023-03-06T23:07:51.884Z,4.35
2023-03-06T23:09:54.950Z,4.25
2023-03-06T23:11:56.912Z,4.30
2023-03-06T23:14:01.284Z,4.20
2023-03-06T23:16:07.070Z,4.53
2023-03-06T23:18:10.170Z,4.53
2023-03-06T23:20:14.839Z,3.78
2023-03-06T23:22:16.974Z,4.50
2023-03-06T23:24:18.957Z,4.10
2023-03-06T23:26:24.831Z,4.32
2023-03-06T23:28:27.499Z,4.45
2023-03-06T23:30:29.597Z,3.92
2023-03-06T23:32:34.441Z,4.70
2023-03-06T23:34:36.492Z,4.50
2023-03-06T23:36:38.541Z,4.53
2023-03-06T23:38:41.282Z,4.43
2023-03-06T23:40:43.306Z,4.30
2023-03-06T23:42:45.231Z,4.20
2023-03-06T23:44:48.336Z,4.43
2023-03-06T23:46:50.368Z,4.72
2023-03-06T23:48:52.410Z,4.30
2023-03-06T23:50:54.415Z,4.30
2023-03-06T23:52:56.384Z,4.50
2023-03-06T23:54:58.288Z,4.45
2023-03-06T23:57:00.179Z,4.22
2023-03-06T23:59:02.196Z,4.35
